Time;durP1;ratioP1;P1;durP2;ratioP2;P2;SDS_P1;SDS_P2;PMS_P1;PMS_P2;Temp;Humidity;BMP_temperature;BMP_pressure;BME280_temperature;BME280_humidity;BME280_pressure;Samples;Min_cycle;Max_cycle;Signal;HPM_P1;HPM_P2
2022/11/25 00:01:37;;;;;;;16.20;2.72;;;8.70;99.90;;;7.73;100.00;100759.16;4219379;28;20027;-76
2022/11/25 00:03:40;;;;;;;13.27;2.30;;;8.60;99.90;;;7.71;100.00;100774.19;4251857;27;20072;-75
2022/11/25 00:05:41;;;;;;;9.60;2.63;;;8.60;99.90;;;7.72;100.00;100775.84;4251818;27;20654;-75
2022/11/25 00:07:41;;;;;;;13.77;2.75;;;8.60;99.90;;;7.70;100.00;100779.59;4219204;28;20028;-75
2022/11/25 00:09:42;;;;;;;15.07;3.08;;;8.60;99.90;;;7.66;100.00;100773.78;4251585;27;20027;-75
2022/11/25 00:11:43;;;;;;;15.02;2.35;;;8.50;99.90;;;7.65;100.00;100785.22;4217811;28;20020;-75
2022/11/25 00:13:46;;;;;;;19.52;3.10;;;8.50;99.90;;;7.63;100.00;100789.78;4218456;28;20016;-75
2022/11/25 00:15:47;;;;;;;14.57;2.30;;;8.50;99.90;;;7.62;100.00;100785.50;4234690;28;20093;-75
2022/11/25 00:17:48;;;;;;;15.80;3.22;;;8.50;99.90;;;7.63;100.00;100789.78;4250876;27;20034;-75
2022/11/25 00:19:49;;;;;;;15.82;2.20;;;8.50;99.90;;;7.60;100.00;100794.47;4217565;28;20036;-75
2022/11/25 00:21:50;;;;;;;14.50;2.17;;;8.50;99.90;;;7.57;100.00;100794.75;4218858;28;20074;-75
2022/11/25 00:23:59;;;;;;;20.63;3.92;;;8.40;99.90;;;7.54;100.00;100801.09;4219267;28;20028;-75
2022/11/25 00:26:13;;;;;;;16.35;2.70;;;8.40;99.90;;;7.51;100.00;100805.78;4250737;27;20016;-75
2022/11/25 00:28:14;;;;;;;7.40;2.42;;;8.40;99.90;;;7.48;100.00;100811.31;4251411;27;20038;-75
2022/11/25 00:30:15;;;;;;;14.82;2.72;;;8.30;99.90;;;7.42;100.00;100820.56;4219105;28;20059;-75
2022/11/25 00:32:16;;;;;;;13.18;3.90;;;8.30;99.90;;;7.33;100.00;100812.66;4251674;27;20035;-75
2022/11/25 00:34:17;;;;;;;14.25;3.10;;;8.30;99.90;;;7.32;100.00;100817.06;4217685;28;20028;-75
2022/11/25 00:36:26;;;;;;;17.58;3.08;;;8.20;99.90;;;7.27;100.00;100824.50;4219080;28;20035;-75
2022/11/25 00:38:28;;;;;;;22.50;3.03;;;8.20;99.90;;;7.17;100.00;100815.75;4218898;28;20024;-75
2022/11/25 00:40:29;;;;;;;16.58;2.47;;;8.10;99.90;;;7.19;100.00;100824.34;4251363;27;20091;-75
2022/11/25 00:44:49;;;;;;;21.27;4.05;;;8.10;99.90;;;7.27;100.00;100834.16;4246976;27;20087;-75
2022/11/25 00:46:50;;;;;;;18.20;3.70;;;8.20;99.90;;;7.31;100.00;100846.06;4251548;27;20019;-75
2022/11/25 00:48:51;;;;;;;20.73;2.90;;;8.20;99.90;;;7.30;100.00;100842.63;4218760;28;20028;-75
2022/11/25 00:50:52;;;;;;;17.60;3.10;;;8.20;99.90;;;7.36;100.00;100849.13;4251263;27;20050;-75
2022/11/25 00:52:53;;;;;;;19.98;3.50;;;8.20;99.90;;;7.31;100.00;100844.28;4251454;27;20421;-75
2022/11/25 00:54:54;;;;;;;15.23;3.67;;;8.20;99.90;;;7.36;100.00;100859.63;4218439;28;20032;-75
2022/11/25 00:56:55;;;;;;;14.45;3.20;;;8.20;99.90;;;7.35;100.00;100856.16;4218750;28;20034;-75
2022/11/25 00:58:56;;;;;;;13.90;2.80;;;8.20;99.90;;;7.35;100.00;100863.22;4218383;28;20097;-75
2022/11/25 01:01:01;;;;;;;15.50;2.88;;;8.20;99.90;;;7.37;100.00;100867.38;4251254;27;20110;-75
2022/11/25 01:03:02;;;;;;;17.73;2.60;;;8.20;99.90;;;7.39;100.00;100869.84;4218735;28;20032;-75
2022/11/25 01:05:03;;;;;;;15.73;3.00;;;8.30;99.90;;;7.42;100.00;100873.03;4218300;28;20028;-75
2022/11/25 01:07:04;;;;;;;16.90;3.10;;;8.30;99.90;;;7.43;100.00;100874.72;4218424;28;20044;-75
2022/11/25 01:09:07;;;;;;;19.02;2.95;;;8.30;99.90;;;7.47;100.00;100872.63;4251208;27;20031;-75
2022/11/25 01:11:11;;;;;;;12.13;2.30;;;8.30;99.90;;;7.52;100.00;100876.53;4218316;28;20028;-74
2022/11/25 01:13:12;;;;;;;19.90;2.83;;;8.30;99.90;;;7.51;100.00;100874.88;4217143;28;20070;-75
2022/11/25 01:15:13;;;;;;;24.50;3.65;;;8.40;99.90;;;7.53;100.00;100887.84;4218281;28;20028;-75
2022/11/25 01:17:14;;;;;;;18.67;3.53;;;8.30;99.90;;;7.52;100.00;100879.16;4218490;28;20045;-75
2022/11/25 01:19:16;;;;;;;17.55;3.42;;;8.30;99.90;;;7.46;100.00;100871.81;4250064;28;20110;-75
2022/11/25 01:21:24;;;;;;;21.52;4.63;;;8.30;99.90;;;7.50;100.00;100877.63;4217123;28;20523;-75
2022/11/25 01:23:27;;;;;;;12.40;2.70;;;8.30;99.90;;;7.51;100.00;100887.16;4250980;28;20082;-75
2022/11/25 01:25:28;;;;;;;18.88;2.50;;;8.30;99.90;;;7.48;100.00;100890.03;4251051;28;20039;-75
2022/11/25 01:27:29;;;;;;;15.73;2.70;;;8.30;99.90;;;7.46;100.00;100889.34;4218459;28;20024;-75
2022/11/25 01:29:30;;;;;;;21.73;2.90;;;8.30;99.90;;;7.41;100.00;100888.91;4218699;28;20082;-75
2022/11/25 01:31:36;;;;;;;18.00;3.08;;;8.30;99.90;;;7.42;100.00;100891.41;4218210;28;20028;-75
2022/11/25 01:33:37;;;;;;;9.65;2.53;;;8.30;99.90;;;7.39;100.00;100899.53;4251100;28;20028;-75
2022/11/25 01:35:38;;;;;;;13.05;3.70;;;8.20;99.90;;;7.38;100.00;100905.75;4251017;28;20031;-75
2022/11/25 01:37:39;;;;;;;14.77;2.88;;;8.30;99.90;;;7.39;100.00;100909.22;4218167;28;20411;-75
2022/11/25 01:39:40;;;;;;;13.98;2.80;;;8.20;99.90;;;7.37;100.00;100909.34;4218098;28;20395;-75
2022/11/25 01:41:41;;;;;;;19.33;3.10;;;8.20;99.90;;;7.36;100.00;100915.56;4218378;28;20032;-75
2022/11/25 01:43:42;;;;;;;13.35;2.60;;;8.20;99.90;;;7.35;100.00;100919.13;4218282;28;20025;-75
2022/11/25 01:45:43;;;;;;;17.38;3.65;;;8.20;99.90;;;7.35;100.00;100911.25;4250902;28;20023;-75
2022/11/25 01:47:44;;;;;;;13.90;2.33;;;8.20;99.90;;;7.36;100.00;100914.72;4218234;28;20028;-75
2022/11/25 01:50:01;;;;;;;12.82;2.88;;;8.30;99.90;;;7.37;100.00;100913.78;4251142;28;20402;-75
2022/11/25 01:52:18;;;;;;;13.15;3.13;;;8.20;99.90;;;7.40;100.00;100919.59;4250330;28;20107;-75
2022/11/25 01:54:26;;;;;;;16.52;3.63;;;8.20;99.90;;;7.39;100.00;100922.34;4216963;28;20027;-75
2022/11/25 01:56:29;;;;;;;16.52;3.08;;;8.30;99.90;;;7.36;100.00;100915.56;4250183;28;20027;-75
2022/11/25 01:58:36;;;;;;;16.52;2.53;;;8.30;99.90;;;7.38;100.00;100918.88;4250449;28;20034;-75
2022/11/25 02:00:37;;;;;;;18.30;3.65;;;8.20;99.90;;;7.37;100.00;100922.47;4250274;28;20084;-75
2022/11/25 02:02:39;;;;;;;20.13;2.90;;;8.30;99.90;;;7.36;100.00;100923.44;4250992;28;20023;-75
2022/11/25 02:04:41;;;;;;;16.90;3.08;;;8.30;99.90;;;7.32;100.00;100923.84;4233578;28;20019;-75
2022/11/25 02:06:59;;;;;;;11.15;2.30;;;8.20;99.90;;;7.27;100.00;100924.22;4218062;28;20024;-75
2022/11/25 02:09:07;;;;;;;12.52;2.50;;;8.20;99.90;;;7.22;100.00;100932.47;4233425;28;20032;-75
2022/11/25 02:11:08;;;;;;;13.55;3.28;;;8.20;99.90;;;7.28;100.00;100941.63;4216706;28;20427;-75
2022/11/25 02:13:10;;;;;;;19.48;3.03;;;8.10;99.90;;;7.20;100.00;100938.78;4218013;28;20090;-75
2022/11/25 02:15:13;;;;;;;19.67;2.92;;;8.20;99.90;;;7.21;100.00;100949.19;4250550;28;20398;-75
2022/11/25 02:17:14;;;;;;;22.70;3.85;;;8.10;99.90;;;7.22;100.00;100952.63;4252131;27;20106;-75
2022/11/25 02:20:10;;;;;;;20.52;3.25;;;8.10;99.90;;;7.22;100.00;100952.63;4218689;28;20036;-75
2022/11/25 02:22:30;;;;;;;11.43;3.05;;;8.10;99.90;;;7.16;100.00;100951.38;4200040;27;20150;-75
2022/11/25 02:24:46;;;;;;;13.45;3.45;;;8.10;99.90;;;7.15;100.00;100948.84;4252015;27;20027;-75
2022/11/25 02:26:47;;;;;;;13.18;2.60;;;8.10;99.90;;;7.12;100.00;100954.34;4253821;27;20027;-75
2022/11/25 02:28:48;;;;;;;15.52;3.33;;;8.00;99.90;;;7.14;100.00;100960.31;4253677;27;20027;-75
2022/11/25 02:30:50;;;;;;;13.48;3.03;;;8.00;99.90;;;7.12;100.00;100962.22;4220870;28;20054;-75
2022/11/25 02:32:51;;;;;;;18.10;3.58;;;8.00;99.90;;;7.07;100.00;100959.16;4236250;28;20088;-75
2022/11/25 02:34:52;;;;;;;19.42;2.92;;;7.90;99.90;;;7.04;100.00;100959.44;4220843;28;20099;-75
2022/11/25 02:36:53;;;;;;;18.10;2.95;;;7.90;99.90;;;7.09;100.00;100967.72;4220967;28;20028;-75
2022/11/25 02:38:57;;;;;;;20.85;3.03;;;8.00;99.90;;;7.09;100.00;100975.59;4253455;27;20034;-75
2022/11/25 02:41:06;;;;;;;;;;;8.00;99.90;;;7.01;100.00;100970.16;4253205;27;20088;-75
2022/11/25 02:43:07;;;;;;;17.63;2.70;;;8.00;99.90;;;7.02;100.00;100982.31;4203427;28;19908;-75
2022/11/25 02:45:14;;;;;;;13.68;2.15;;;8.00;99.90;;;7.03;100.00;100987.44;4253293;27;20034;-75
2022/11/25 02:47:15;;;;;;;13.73;3.35;;;8.00;99.90;;;6.99;100.00;100982.59;4252734;27;20031;-75
2022/11/25 02:49:16;;;;;;;14.55;3.28;;;7.90;99.90;;;6.97;100.00;100982.69;4220456;28;20078;-75
2022/11/25 02:51:20;;;;;;;14.73;2.55;;;7.90;99.90;;;6.97;100.00;100980.06;4220575;28;20028;-75
2022/11/25 02:53:21;;;;;;;18.05;2.47;;;7.90;99.90;;;6.96;100.00;100981.03;4253198;27;20517;-75
2022/11/25 02:55:22;;;;;;;15.68;3.30;;;7.80;99.90;;;6.96;100.00;100969.72;4220326;28;20055;-75
2022/11/25 02:57:23;;;;;;;15.50;2.45;;;7.80;99.90;;;6.91;100.00;100967.47;4220454;28;20479;-75
2022/11/25 02:59:23;;;;;;;16.58;3.05;;;7.80;99.90;;;6.95;100.00;100975.94;4220525;28;20135;-75
2022/11/25 03:01:25;;;;;;;16.42;2.42;;;7.80;99.90;;;6.97;100.00;100968.75;4220388;28;20035;-75
2022/11/25 03:03:26;;;;;;;16.20;3.25;;;7.80;99.90;;;7.05;100.00;100979.44;4220429;28;20024;-75
2022/11/25 03:05:27;;;;;;;21.98;3.08;;;7.90;99.90;;;7.05;100.00;100982.06;4220214;28;20016;-75
2022/11/25 03:07:28;;;;;;;15.43;3.90;;;7.90;99.90;;;7.12;100.00;100993.72;4220490;28;20020;-75
2022/11/25 03:09:29;;;;;;;21.10;2.88;;;7.90;99.90;;;7.06;100.00;100991.59;4219893;28;20024;-75
2022/11/25 03:13:50;;;;;;;14.85;2.13;;;8.00;99.90;;;7.12;100.00;101015.53;4220373;28;20406;-75
2022/11/25 03:15:50;;;;;;;17.58;3.08;;;8.00;99.90;;;7.12;100.00;101010.28;4218836;28;20032;-75
2022/11/25 03:17:51;;;;;;;18.77;3.03;;;8.00;99.90;;;7.14;100.00;101016.22;4218688;28;20035;-75
2022/11/25 03:19:52;;;;;;;16.55;3.28;;;8.10;99.90;;;7.16;100.00;101016.94;4218633;28;20028;-75
2022/11/25 03:21:53;;;;;;;14.23;2.60;;;8.00;99.90;;;7.07;100.00;100999.34;4219844;28;20044;-75
2022/11/25 03:23:55;;;;;;;17.75;2.78;;;8.00;99.90;;;7.14;100.00;100999.66;4202258;28;20558;-75
2022/11/25 03:25:56;;;;;;;10.80;2.40;;;8.00;99.90;;;7.12;100.00;101009.44;4219738;28;20032;-75
2022/11/25 03:27:57;;;;;;;21.35;2.58;;;8.00;99.90;;;7.15;100.00;101014.44;4218685;28;20031;-75
2022/11/25 03:29:58;;;;;;;17.77;3.45;;;8.00;99.90;;;7.15;100.00;101014.44;4219648;28;20487;-75
2022/11/25 03:31:59;;;;;;;18.13;2.97;;;8.00;99.90;;;7.17;100.00;101015.13;4218751;28;20028;-75
2022/11/25 03:34:00;;;;;;;18.25;2.70;;;8.00;99.90;;;7.16;100.00;101013.50;4218192;28;20066;-75
2022/11/25 03:36:00;;;;;;;19.58;2.88;;;8.00;99.90;;;7.14;100.00;101018.00;4219632;28;20514;-75
2022/11/25 03:38:01;;;;;;;11.25;2.35;;;8.00;99.90;;;7.15;100.00;101023.16;4219781;28;20399;-75
2022/11/25 03:40:05;;;;;;;19.00;2.72;;;8.00;99.90;;;7.15;100.00;101023.16;4216571;28;20035;-75
2022/11/25 03:42:06;;;;;;;19.42;3.20;;;8.00;99.90;;;7.16;100.00;101016.13;4218498;28;20032;-75
2022/11/25 03:44:06;;;;;;;15.15;2.97;;;8.10;99.90;;;7.14;100.00;101012.75;4219490;28;20130;-75
2022/11/25 03:46:07;;;;;;;13.25;2.08;;;8.10;99.90;;;7.14;100.00;101023.25;4218664;28;20507;-74
2022/11/25 03:48:08;;;;;;;17.23;2.47;;;8.10;99.90;;;7.17;100.00;101036.13;4219658;28;20043;-75
2022/11/25 03:50:12;;;;;;;14.45;2.47;;;8.10;99.90;;;7.18;100.00;101030.75;4218337;28;20121;-75
2022/11/25 03:52:13;;;;;;;15.60;2.55;;;8.10;99.90;;;7.19;100.00;101028.97;4218260;28;20103;-75
2022/11/25 03:54:14;;;;;;;15.85;3.35;;;8.10;99.90;;;7.20;100.00;101022.75;4219584;28;20051;-75
2022/11/25 03:56:15;;;;;;;14.07;2.85;;;8.10;99.90;;;7.21;100.00;101020.00;4219307;28;20016;-75
2022/11/25 03:58:16;;;;;;;17.40;2.60;;;8.10;99.90;;;7.20;100.00;101026.22;4219289;28;20506;-75
2022/11/25 04:00:17;;;;;;;12.82;2.85;;;8.10;99.90;;;7.18;100.00;101029.94;4217999;28;20020;-75
2022/11/25 04:02:17;;;;;;;11.02;2.83;;;8.10;99.90;;;7.10;100.00;101032.34;4219598;28;20020;-75
2022/11/25 04:04:18;;;;;;;19.20;3.13;;;8.10;99.90;;;7.12;100.00;101036.50;4219361;28;20039;-75
2022/11/25 04:06:20;;;;;;;9.52;2.15;;;8.00;99.90;;;7.07;100.00;101032.63;4219449;28;20109;-75
2022/11/25 04:08:22;;;;;;;17.33;3.40;;;8.00;99.90;;;7.06;100.00;101039.66;4219172;28;20028;-75
2022/11/25 04:10:23;;;;;;;11.88;3.13;;;8.00;99.90;;;7.03;100.00;101037.28;4218860;28;20022;-75
2022/11/25 04:14:43;;;;;;;14.93;2.00;;;8.00;99.90;;;7.03;100.00;101044.31;4219218;28;20031;-75
2022/11/25 04:16:44;;;;;;;12.27;1.65;;;8.00;99.90;;;7.02;100.00;101040.00;4251732;27;20027;-75
2022/11/25 04:18:45;;;;;;;12.63;2.20;;;8.00;99.90;;;7.01;100.00;101046.22;4250854;27;20026;-75
2022/11/25 04:20:46;;;;;;;12.85;2.78;;;8.00;99.90;;;7.03;100.00;101047.75;4219192;28;20016;-75
2022/11/25 04:22:47;;;;;;;9.77;2.38;;;8.00;99.90;;;7.03;100.00;101052.16;4234566;28;20154;-75
2022/11/25 04:24:48;;;;;;;12.27;2.00;;;8.00;99.90;;;7.02;100.00;101061.00;4217460;28;20028;-75
2022/11/25 04:26:49;;;;;;;15.00;3.10;;;7.90;99.90;;;7.01;100.00;101059.34;4251882;27;20076;-75
2022/11/25 04:28:50;;;;;;;23.70;4.20;;;8.00;99.90;;;7.07;100.00;101064.09;4217797;28;20119;-75
2022/11/25 04:30:50;;;;;;;19.08;2.60;;;8.00;99.90;;;7.05;100.00;101058.13;4218932;28;20107;-75
2022/11/25 04:32:51;;;;;;;18.73;2.42;;;8.00;99.90;;;7.12;100.00;101070.63;4251395;27;20490;-75
2022/11/25 04:34:52;;;;;;;15.82;2.50;;;8.00;99.90;;;7.14;100.00;101076.56;4218957;28;20031;-74
2022/11/25 04:36:53;;;;;;;13.27;2.33;;;8.10;99.90;;;7.15;100.00;101077.41;4219097;28;20489;-75
2022/11/25 04:38:54;;;;;;;14.90;2.95;;;8.10;99.90;;;7.18;100.00;101082.41;4218594;28;20036;-75
2022/11/25 04:40:55;;;;;;;18.13;4.15;;;8.10;99.90;;;7.19;100.00;101078.81;4217037;28;20024;-75
2022/11/25 04:42:56;;;;;;;22.60;4.40;;;8.10;99.90;;;7.25;100.00;101080.94;4217799;28;20451;-75
2022/11/25 04:45:02;;;;;;;19.83;3.45;;;8.10;99.90;;;7.22;100.00;101070.69;4218826;28;20024;-75
2022/11/25 04:47:03;;;;;;;18.02;3.28;;;8.10;99.90;;;7.22;100.00;101061.03;4251279;27;20131;-75
2022/11/25 04:49:04;;;;;;;12.73;2.33;;;8.20;99.90;;;7.22;100.00;101073.31;4218678;28;20024;-75
2022/11/25 04:51:05;;;;;;;19.60;3.65;;;8.10;99.90;;;7.20;100.00;101075.22;4218819;28;20092;-74
2022/11/25 04:53:05;;;;;;;14.43;3.00;;;8.10;99.90;;;7.23;100.00;101081.06;4218829;28;20027;-74
2022/11/25 04:55:07;;;;;;;30.85;4.55;;;8.10;99.90;;;7.23;100.00;101085.47;4251148;27;20038;-75
2022/11/25 04:57:14;;;;;;;20.27;4.38;;;8.10;99.90;;;7.31;100.00;101083.06;4218638;28;20530;-74
2022/11/25 05:01:34;;;;;;;12.20;2.50;;;8.20;99.90;;;7.35;100.00;101089.69;4246337;27;20130;-75
2022/11/25 05:03:35;;;;;;;20.52;4.20;;;8.30;99.90;;;7.32;100.00;101087.31;4217181;28;20028;-75
2022/11/25 05:05:38;;;;;;;13.40;2.47;;;8.30;99.90;;;7.35;100.00;101083.66;4217238;28;20573;-75
2022/11/25 05:07:39;;;;;;;22.48;2.75;;;8.30;99.90;;;7.33;100.00;101091.63;4251293;27;20110;-75
2022/11/25 05:09:40;;;;;;;16.27;3.10;;;8.30;99.90;;;7.35;100.00;101094.16;4218369;28;20038;-75
2022/11/25 05:11:41;;;;;;;18.60;2.50;;;8.30;99.90;;;7.36;100.00;101104.50;4217195;28;20032;-75
2022/11/25 05:13:42;;;;;;;21.35;5.03;;;8.30;99.90;;;7.36;100.00;101108.91;4218569;28;20020;-75
2022/11/25 05:15:43;;;;;;;14.05;3.42;;;8.30;99.90;;;7.31;100.00;101108.47;4234030;28;20027;-75
2022/11/25 05:17:43;;;;;;;19.50;3.90;;;8.30;99.90;;;7.36;100.00;101111.53;4216596;28;20503;-75
2022/11/25 05:19:45;;;;;;;13.27;3.17;;;8.30;99.90;;;7.33;100.00;101112.63;4218336;28;20035;-75
2022/11/25 05:21:46;;;;;;;13.95;3.72;;;8.30;99.90;;;7.33;100.00;101117.03;4250929;28;20035;-74
2022/11/25 05:23:46;;;;;;;20.38;3.95;;;8.20;99.90;;;7.34;100.00;101114.31;4218720;28;20035;-75
2022/11/25 05:25:47;;;;;;;15.23;2.38;;;8.30;99.90;;;7.31;100.00;101125.03;4218217;28;20024;-75
2022/11/25 05:27:48;;;;;;;18.27;2.95;;;8.20;99.90;;;7.31;100.00;101121.59;4218310;28;20498;-75
2022/11/25 05:29:49;;;;;;;13.75;2.53;;;8.20;99.90;;;7.28;100.00;101120.06;4216753;28;20073;-75
2022/11/25 05:31:50;;;;;;;21.80;3.08;;;8.20;99.90;;;7.27;100.00;101118.38;4233453;28;20031;-74
2022/11/25 05:33:51;;;;;;;15.25;2.97;;;8.10;99.90;;;7.21;100.00;101121.50;4218364;28;20039;-74
2022/11/25 05:36:01;;;;;;;21.60;3.05;;;8.10;99.90;;;7.25;100.00;101130.78;4251032;28;20030;-75
2022/11/25 05:38:03;;;;;;;16.77;3.33;;;8.10;99.90;;;7.23;100.00;101130.06;4250594;28;20024;-75
2022/11/25 05:40:05;;;;;;;19.77;3.80;;;8.10;99.90;;;7.24;100.00;101131.75;4218013;28;20506;-75
2022/11/25 05:42:05;;;;;;;17.63;3.83;;;8.10;99.90;;;7.22;100.00;101136.28;4218332;28;20046;-75
2022/11/25 05:44:06;;;;;;;17.88;4.15;;;8.10;99.90;;;7.17;100.00;101138.44;4218260;28;20024;-75
2022/11/25 05:46:08;;;;;;;22.65;3.20;;;8.10;99.90;;;7.17;100.00;101144.53;4218475;28;20102;-75
2022/11/25 05:48:09;;;;;;;21.80;3.72;;;8.10;99.90;;;7.15;100.00;101140.34;4250787;28;20031;-74
2022/11/25 05:50:10;;;;;;;15.90;3.78;;;8.10;99.90;;;7.14;100.00;101141.31;4218429;28;20059;-75
2022/11/25 05:52:11;;;;;;;16.17;3.38;;;8.00;99.90;;;7.10;100.00;101146.00;4219770;28;20063;-75
2022/11/25 05:54:13;;;;;;;19.70;3.25;;;8.00;99.90;;;7.13;100.00;101152.78;4220129;28;20035;-75
2022/11/25 05:56:14;;;;;;;22.65;4.10;;;8.00;99.90;;;7.12;100.00;101151.09;4221245;28;20054;-75
2022/11/25 05:58:14;;;;;;;21.20;3.35;;;8.00;99.90;;;7.08;100.00;101152.28;4254307;27;20020;-75
2022/11/25 06:00:16;;;;;;;19.98;4.68;;;8.00;99.90;;;7.11;100.00;101163.38;4221301;28;20028;-75
2022/11/25 06:02:16;;;;;;;16.70;3.08;;;8.00;99.90;;;7.13;100.00;101163.28;4253947;27;20156;-75
2022/11/25 06:04:17;;;;;;;13.10;3.70;;;8.00;99.90;;;7.17;100.00;101169.91;4221546;28;20020;-75
2022/11/25 06:06:19;;;;;;;18.67;3.70;;;8.00;99.90;;;7.20;100.00;101174.91;4221331;28;20024;-74
2022/11/25 06:08:20;;;;;;;17.58;3.08;;;8.10;99.90;;;7.22;100.00;101178.28;4221221;28;20032;-75
2022/11/25 06:10:21;;;;;;;18.42;3.53;;;8.10;99.90;;;7.21;100.00;101176.59;4220760;28;20024;-75
2022/11/25 06:12:22;;;;;;;22.85;3.22;;;8.10;99.90;;;7.17;100.00;101183.88;4221269;28;20369;-75
2022/11/25 06:14:22;;;;;;;21.20;3.42;;;8.10;99.90;;;7.17;100.00;101188.28;4221309;28;20548;-75
2022/11/25 06:16:24;;;;;;;12.60;2.78;;;8.10;99.90;;;7.15;100.00;101190.22;4236629;28;20027;-75
2022/11/25 06:18:25;;;;;;;17.73;3.30;;;8.10;99.90;;;7.14;100.00;101193.78;4219988;28;20471;-75
2022/11/25 06:20:26;;;;;;;13.07;3.38;;;8.10;99.90;;;7.15;100.00;101206.78;4221097;28;20032;-75
2022/11/25 06:22:27;;;;;;;14.43;3.47;;;8.00;99.90;;;7.16;100.00;101205.00;4253751;27;20546;-74
2022/11/25 06:24:29;;;;;;;18.00;3.10;;;8.00;99.90;;;7.15;100.00;101217.28;4220713;28;20028;-75
2022/11/25 06:26:30;;;;;;;17.75;3.65;;;8.00;99.90;;;7.15;100.00;101214.66;4220811;28;20104;-75
2022/11/25 06:28:31;;;;;;;25.48;3.42;;;8.00;99.90;;;7.19;100.00;101231.00;4253676;27;20082;-75
2022/11/25 06:30:32;;;;;;;17.50;4.35;;;8.10;99.90;;;7.16;100.00;101233.84;4220815;28;20510;-75
2022/11/25 06:32:33;;;;;;;15.10;2.83;;;8.10;99.90;;;7.17;100.00;101235.50;4236327;28;20027;-75
2022/11/25 06:34:35;;;;;;;16.63;2.90;;;8.10;99.90;;;7.12;100.00;101240.28;4220658;28;20028;-74
2022/11/25 06:36:36;;;;;;;14.10;2.80;;;8.10;99.90;;;7.08;100.00;101244.09;4236405;28;20020;-75
2022/11/25 06:38:36;;;;;;;8.60;3.13;;;8.00;99.90;;;7.00;100.00;101249.13;4220719;28;20093;-75
2022/11/25 06:40:37;;;;;;;17.52;3.13;;;7.90;99.90;;;6.93;100.00;101261.06;4253267;27;20016;-74
2022/11/25 06:42:38;;;;;;;16.25;2.92;;;7.90;99.90;;;6.87;100.00;101262.34;4220392;28;20028;-75
2022/11/25 06:44:39;;;;;;;13.75;3.38;;;7.80;99.90;;;6.87;100.00;101264.19;4220719;28;20070;-75
2022/11/25 06:46:40;;;;;;;13.23;2.75;;;7.80;99.90;;;6.85;100.00;101269.53;4220601;28;20054;-75
2022/11/25 06:48:41;;;;;;;14.77;3.45;;;7.80;99.90;;;6.85;100.00;101273.94;4220504;28;20499;-75
2022/11/25 06:50:42;;;;;;;16.70;5.10;;;7.80;99.90;;;6.88;100.00;101277.16;4253105;27;20035;-75
2022/11/25 06:52:43;;;;;;;16.65;3.50;;;7.70;99.90;;;6.87;100.00;101280.72;4220553;28;20028;-74
2022/11/25 06:54:44;;;;;;;15.02;2.53;;;7.70;99.90;;;6.82;100.00;101285.50;4218998;28;20035;-75
2022/11/25 06:56:50;;;;;;;16.60;4.45;;;7.70;99.90;;;6.79;100.00;101293.59;4219075;28;20107;-75
2022/11/25 06:58:52;;;;;;;14.68;3.88;;;7.70;99.90;;;6.72;100.00;101294.19;4251763;27;20028;-75
2022/11/25 07:00:53;;;;;;;16.67;3.15;;;7.60;99.90;;;6.64;100.00;101305.25;4220421;28;20051;-75
2022/11/25 07:02:54;;;;;;;15.32;3.53;;;7.60;99.90;;;6.58;100.00;101314.44;4219971;28;20399;-75
2022/11/25 07:04:55;;;;;;;15.65;3.67;;;7.50;99.90;;;6.49;100.00;101306.41;4220336;28;20024;-75
2022/11/25 07:06:56;;;;;;;10.13;1.83;;;7.50;99.90;;;6.42;100.00;101318.34;4252887;27;20019;-75
2022/11/25 07:08:57;;;;;;;23.63;3.67;;;7.40;99.90;;;6.34;100.00;101318.06;4220381;28;20024;-75
2022/11/25 07:11:14;;;;;;;14.70;3.00;;;7.30;99.90;;;6.32;100.00;101333.91;4220017;28;20111;-75
2022/11/25 07:13:15;;;;;;;18.00;3.92;;;7.20;99.90;;;6.30;100.00;101330.53;4220236;28;20538;-75
2022/11/25 07:15:16;;;;;;;21.50;3.92;;;7.20;99.90;;;6.37;100.00;101337.00;4252785;27;20065;-75
2022/11/25 07:17:17;;;;;;;10.88;2.78;;;7.30;99.90;;;6.42;100.00;101339.28;4220356;28;20073;-75
2022/11/25 07:19:18;;;;;;;24.52;3.53;;;7.30;99.90;;;6.42;100.00;101344.53;4219151;28;20035;-75
2022/11/25 07:21:23;;;;;;;18.23;3.72;;;7.30;99.90;;;6.37;100.00;101342.25;4219996;28;20115;-74
2022/11/25 07:23:24;;;;;;;17.25;2.80;;;7.30;99.90;;;6.34;100.00;101347.72;4252357;27;20060;-75
2022/11/25 07:25:25;;;;;;;23.35;3.50;;;7.30;99.90;;;6.34;100.00;101347.72;4220014;28;20020;-75
2022/11/25 07:27:26;;;;;;;13.30;3.78;;;7.20;99.90;;;6.34;100.00;101352.94;4252701;27;20032;-75
2022/11/25 07:29:29;;;;;;;19.73;4.25;;;7.20;99.90;;;6.37;100.00;101352.72;4219886;28;20110;-75
2022/11/25 07:31:36;;;;;;;16.58;3.83;;;7.30;99.90;;;6.40;100.00;101362.97;4218600;28;20086;-75
2022/11/25 07:33:37;;;;;;;18.75;3.25;;;7.30;99.90;;;6.38;100.00;101369.28;4252529;27;20094;-75
2022/11/25 07:35:38;;;;;;;15.18;2.83;;;7.30;99.90;;;6.40;100.00;101378.69;4219947;28;20089;-75
2022/11/25 07:37:38;;;;;;;15.70;3.78;;;7.30;99.90;;;6.45;100.00;101381.81;4219696;28;20028;-75
2022/11/25 07:39:39;;;;;;;25.15;3.92;;;7.30;99.90;;;6.51;100.00;101391.84;4219840;28;20081;-75
2022/11/25 07:41:41;;;;;;;25.73;5.10;;;7.40;99.90;;;6.62;100.00;101402.38;4219749;28;20020;-75
2022/11/25 07:43:47;;;;;;;17.05;4.60;;;7.50;99.90;;;6.67;100.00;101409.88;4252479;27;20024;-74
2022/11/25 07:45:48;;;;;;;29.75;5.82;;;7.50;99.90;;;6.66;100.00;101403.78;4252146;27;20023;-75
2022/11/25 07:47:48;;;;;;;23.60;4.55;;;7.60;99.90;;;6.78;100.00;101420.38;4219696;28;20403;-75
2022/11/25 07:49:49;;;;;;;20.15;5.10;;;7.60;99.90;;;6.85;100.00;101428.63;4219645;28;20032;-75
2022/11/25 07:51:52;;;;;;;20.05;5.10;;;7.70;99.90;;;6.90;100.00;101434.41;4219672;28;20035;-75
2022/11/25 07:53:56;;;;;;;24.65;6.15;;;7.70;99.90;;;6.93;100.00;101437.59;4219416;28;20038;-75
2022/11/25 07:56:01;;;;;;;21.52;6.05;;;7.80;99.90;;;6.97;100.00;101444.28;4218090;28;20051;-75
2022/11/25 07:58:02;;;;;;;20.13;4.47;;;7.80;99.90;;;6.95;100.00;101448.00;4219691;28;20491;-75
2022/11/25 08:00:05;;;;;;;24.42;6.25;;;7.80;99.90;;;6.98;100.00;101456.47;4219324;28;20400;-75
2022/11/25 08:02:07;;;;;;;19.92;4.88;;;7.80;99.90;;;6.96;100.00;101452.28;4219292;28;20095;-75
2022/11/25 08:04:11;;;;;;;24.20;5.10;;;7.80;99.90;;;7.01;100.00;101471.13;4251937;27;20023;-75
2022/11/25 08:06:16;;;;;;;18.58;4.25;;;7.90;99.90;;;7.05;100.00;101481.28;4252034;27;20019;-75
2022/11/25 08:08:17;;;;;;;25.65;4.85;;;7.90;99.90;;;7.08;100.00;101483.66;4251716;27;20023;-75
2022/11/25 08:10:18;;;;;;;29.80;6.63;;;7.90;99.90;;;7.08;100.00;101488.91;4218926;28;20020;-75
2022/11/25 08:12:19;;;;;;;24.67;6.80;;;8.00;99.90;;;7.15;100.00;101500.63;4219504;28;20024;-75
2022/11/25 08:14:20;;;;;;;23.60;5.50;;;8.00;99.90;;;7.19;100.00;101503.84;4218498;28;20027;-75
2022/11/25 08:16:25;;;;;;;27.83;9.18;;;8.00;99.90;;;7.23;100.00;101513.16;4219149;28;20048;-76
2022/11/25 08:18:27;;;;;;;28.90;11.77;;;8.10;99.90;;;7.27;100.00;101509.34;4218181;28;20454;-75
2022/11/25 08:20:28;;;;;;;34.47;13.05;;;8.10;99.90;;;7.28;100.00;101513.66;4219172;28;20035;-75
2022/11/25 08:22:29;;;;;;;28.92;11.48;;;8.20;99.90;;;7.34;100.00;101515.81;4219332;28;20024;-75
2022/11/25 08:24:30;;;;;;;26.92;7.20;;;8.20;99.90;;;7.38;100.00;101519.88;4218789;28;20035;-75
2022/11/25 08:26:36;;;;;;;16.15;5.57;;;8.20;99.90;;;7.42;100.00;101523.94;4218902;28;20034;-75
2022/11/25 08:28:40;;;;;;;33.08;7.35;;;8.30;99.90;;;7.47;100.00;101534.06;4251393;27;20028;-75
2022/11/25 08:30:41;;;;;;;22.98;6.60;;;8.30;99.90;;;7.50;100.00;101534.69;4251463;27;20020;-75
2022/11/25 08:32:42;;;;;;;24.15;7.10;;;8.40;99.90;;;7.54;100.00;101536.13;4219003;28;20028;-75
2022/11/25 08:34:42;;;;;;;41.47;16.38;;;8.40;99.90;;;7.52;100.00;101535.41;4217504;28;20020;-75
2022/11/25 08:36:43;;;;;;;29.98;12.32;;;8.40;99.90;;;7.55;100.00;101532.56;4217577;28;20503;-75
2022/11/25 08:38:48;;;;;;;29.67;10.10;;;8.40;99.90;;;7.60;100.00;101540.91;4251290;27;20023;-75